Time;durP1;ratioP1;P1;durP2;ratioP2;P2;SDS_P1;SDS_P2;PMS_P1;PMS_P2;Temp;Humidity;BMP_temperature;BMP_pressure;BME280_temperature;BME280_humidity;BME280_pressure;Samples;Min_cycle;Max_cycle;Signal;HPM_P1;HPM_P2
2021/04/03 00:00:50;;;;;;;16.42;10.30;;;;;;;2.28;78.12;99876.50;1700718;84;21257;-71
2021/04/03 00:03:19;;;;;;;16.82;10.60;;;;;;;2.22;78.09;99880.00;1704606;84;21193;-70
2021/04/03 00:05:47;;;;;;;17.85;10.98;;;;;;;2.16;78.14;99887.45;1702880;84;21524;-69
2021/04/03 00:08:15;;;;;;;17.35;10.35;;;;;;;2.11;78.24;99884.97;1691526;82;21398;-70
2021/04/03 00:10:54;;;;;;;18.52;10.20;;;;;;;2.10;78.31;99882.02;1660592;84;21184;-69
2021/04/03 00:13:24;;;;;;;16.12;9.70;;;;;;;2.10;78.38;99886.49;1661375;86;21273;-70
2021/04/03 00:15:52;;;;;;;18.20;10.60;;;;;;;2.10;78.40;99880.70;1659883;84;21110;-70
2021/04/03 00:18:19;;;;;;;15.95;9.83;;;;;;;2.06;78.34;99883.48;1662197;84;21217;-71
2021/04/03 00:20:47;;;;;;;17.15;11.28;;;;;;;2.02;78.35;99885.47;1697089;83;21343;-72
2021/04/03 00:23:18;;;;;;;17.52;10.48;;;;;;;1.96;78.42;99889.77;1703188;83;21250;-70
2021/04/03 00:25:46;;;;;;;16.02;10.18;;;;;;;1.91;78.52;99887.48;1699706;82;21130;-72
2021/04/03 00:28:14;;;;;;;16.25;10.18;;;;;;;1.89;78.61;99890.34;1699760;83;21173;-69
2021/04/03 00:30:42;;;;;;;16.73;11.22;;;;;;;1.86;78.60;99888.14;1666889;84;21165;-71
2021/04/03 00:33:10;;;;;;;17.02;11.12;;;;;;;1.83;78.59;99879.35;1653610;86;21376;-71
2021/04/03 00:35:44;;;;;;;16.85;10.20;;;;;;;1.82;78.62;99886.97;1653784;86;21168;-71
2021/04/03 00:38:14;;;;;;;17.67;11.15;;;;;;;1.80;78.59;99887.68;1664710;85;21241;-71
2021/04/03 00:40:46;;;;;;;17.23;11.63;;;;;;;1.73;78.52;99886.94;1662999;86;21114;-72
2021/04/03 00:43:17;;;;;;;16.60;11.53;;;;;;;1.70;78.51;99886.84;1666508;86;21162;-70
2021/04/03 00:45:46;;;;;;;18.70;11.63;;;;;;;1.70;78.55;99889.99;1659436;86;21388;-71
2021/04/03 00:48:15;;;;;;;19.15;11.95;;;;;;;1.70;78.56;99884.73;1651740;84;21785;-71
2021/04/03 00:50:47;;;;;;;18.05;11.45;;;;;;;1.71;78.60;99888.48;1659641;84;21204;-71
2021/04/03 00:53:19;;;;;;;23.10;12.05;;;;;;;1.66;78.62;99880.92;1655304;84;21629;-71
2021/04/03 00:55:49;;;;;;;17.07;11.73;;;;;;;1.61;78.66;99883.70;1654088;84;21157;-71
2021/04/03 00:58:19;;;;;;;19.25;12.45;;;;;;;1.56;78.66;99886.15;1667031;84;21731;-69
2021/04/03 01:00:47;;;;;;;17.10;11.88;;;;;;;1.52;78.68;99884.97;1632163;86;21218;-71
2021/04/03 01:03:15;;;;;;;21.07;12.88;;;;;;;1.49;78.74;99888.03;1646304;84;21201;-72
2021/04/03 01:05:44;;;;;;;20.82;12.90;;;;;;;1.46;78.72;99884.51;1664432;84;21691;-71
2021/04/03 01:08:12;;;;;;;21.68;13.65;;;;;;;1.45;78.76;99885.53;1665986;84;21245;-70
2021/04/03 01:10:53;;;;;;;23.57;13.08;;;;;;;1.40;78.80;99886.67;1657125;84;21371;-71
2021/04/03 01:13:44;;;;;;;22.00;14.07;;;;;;;1.38;78.93;99888.70;1698698;83;21113;-71
2021/04/03 01:16:36;;;;;;;22.95;15.10;;;;;;;1.35;79.08;99890.44;1703358;82;21209;-71
2021/04/03 01:19:27;;;;;;;22.55;13.98;;;;;;;1.37;79.24;99895.80;1691893;82;21219;-70
2021/04/03 01:22:27;;;;;;;21.97;14.18;;;;;;;1.42;79.31;99895.69;1692249;84;21591;-70
2021/04/03 01:25:19;;;;;;;19.65;13.75;;;;;;;1.47;79.37;99891.89;1691401;82;22316;-72
2021/04/03 01:28:28;;;;;;;22.13;13.45;;;;;;;1.50;79.42;99892.78;1701154;84;21173;-69
2021/04/03 01:30:57;;;;;;;22.02;13.20;;;;;;;1.54;79.37;99886.06;1694567;83;21536;-70
2021/04/03 01:33:25;;;;;;;20.92;12.50;;;;;;;1.59;79.30;99898.88;1695617;83;21108;-70
2021/04/03 01:36:02;;;;;;;19.25;12.78;;;;;;;1.63;79.28;99895.31;1697942;84;21138;-69
2021/04/03 01:38:54;;;;;;;21.23;13.53;;;;;;;1.70;79.30;99889.99;1773333;79;23402;-69
2021/04/03 01:41:25;;;;;;;23.57;14.40;;;;;;;1.62;79.30;99895.03;1735770;80;21128;-70
2021/04/03 01:43:54;;;;;;;23.07;14.20;;;;;;;1.56;79.32;99891.41;1736946;81;21589;-71
2021/04/03 01:46:24;;;;;;;20.90;14.20;;;;;;;1.53;79.32;99898.94;1741368;81;21093;-70
2021/04/03 01:48:52;;;;;;;21.23;14.10;;;;;;;1.50;79.28;99898.84;1714108;82;21129;-70
2021/04/03 01:51:20;;;;;;;28.52;18.42;;;;;;;1.46;79.28;99898.18;1719871;81;21175;-70
2021/04/03 01:53:48;;;;;;;34.60;16.70;;;;;;;1.39;79.33;99901.66;1766182;81;21575;-69
2021/04/03 01:56:19;;;;;;;28.55;17.30;;;;;;;1.40;79.37;99903.77;1748798;81;21251;-70
2021/04/03 01:58:47;;;;;;;26.85;16.90;;;;;;;1.35;79.38;99902.28;1752302;81;21684;-71
2021/04/03 02:01:16;;;;;;;29.15;18.05;;;;;;;1.29;79.50;99898.69;1758783;79;21211;-71
2021/04/03 02:03:45;;;;;;;35.88;21.60;;;;;;;1.26;79.59;99895.68;1721842;82;21634;-70
2021/04/03 02:06:16;;;;;;;33.08;20.50;;;;;;;1.20;79.67;99893.89;1743617;81;21175;-71
2021/04/03 02:08:48;;;;;;;25.90;17.00;;;;;;;1.12;79.76;99890.50;1775620;80;21380;-71
2021/04/03 02:11:17;;;;;;;24.07;16.00;;;;;;;1.12;79.83;99895.76;1757372;81;21123;-71
2021/04/03 02:13:48;;;;;;;26.93;16.10;;;;;;;1.13;79.86;99888.67;1809899;79;21144;-71
2021/04/03 02:16:16;;;;;;;26.00;17.25;;;;;;;1.12;79.88;99879.17;1810379;79;21602;-70
2021/04/03 02:18:45;;;;;;;23.05;15.05;;;;;;;1.13;79.88;99891.30;1774313;79;21647;-71
2021/04/03 02:21:14;;;;;;;26.50;16.02;;;;;;;1.16;79.88;99886.94;1800473;79;21196;-70
2021/04/03 02:23:45;;;;;;;23.98;16.15;;;;;;;1.17;79.88;99885.39;1796773;79;21206;-70
2021/04/03 02:26:13;;;;;;;26.40;16.60;;;;;;;1.20;79.89;99880.23;1794668;79;21864;-71
2021/04/03 02:28:42;;;;;;;25.85;16.62;;;;;;;1.23;79.90;99876.38;1792373;79;21084;-71
2021/04/03 02:31:10;;;;;;;24.87;16.62;;;;;;;1.25;79.90;99881.73;1795682;79;22232;-70
2021/04/03 02:33:40;;;;;;;24.20;15.55;;;;;;;1.25;79.84;99883.52;1804221;79;21468;-71
2021/04/03 02:36:09;;;;;;;24.30;16.20;;;;;;;1.25;79.82;99884.36;1809468;79;21183;-70
2021/04/03 02:38:38;;;;;;;25.90;15.70;;;;;;;1.24;79.79;99882.72;1770277;80;21171;-70
2021/04/03 02:41:07;;;;;;;23.62;16.30;;;;;;;1.23;79.73;99881.63;1762519;79;21590;-71
2021/04/03 02:44:17;;;;;;;23.70;14.87;;;;;;;1.21;79.65;99884.97;1771306;79;21202;-70
2021/04/03 02:46:53;;;;;;;21.10;14.15;;;;;;;1.16;79.53;99885.11;1764250;79;21606;-71
2021/04/03 02:49:47;;;;;;;21.23;12.82;;;;;;;1.12;79.43;99890.50;1768470;80;22186;-71
2021/04/03 02:52:16;;;;;;;21.73;14.33;;;;;;;1.09;79.42;99892.75;1767711;80;21781;-71
2021/04/03 02:54:45;;;;;;;24.43;15.15;;;;;;;1.05;79.48;99884.45;1764176;80;21198;-72
2021/04/03 02:57:14;;;;;;;22.95;14.65;;;;;;;1.04;79.51;99883.36;1742166;82;21067;-72
2021/04/03 02:59:47;;;;;;;21.02;13.65;;;;;;;1.01;79.45;99889.84;1752739;80;21431;-71
2021/04/03 03:02:17;;;;;;;20.85;14.00;;;;;;;0.98;79.37;99894.20;1767478;80;21179;-70
2021/04/03 03:04:46;;;;;;;21.55;13.90;;;;;;;0.96;79.35;99887.56;1747417;80;21171;-71
2021/04/03 03:07:14;;;;;;;21.65;14.40;;;;;;;0.91;79.32;99887.66;1771732;80;21072;-71
2021/04/03 03:09:46;;;;;;;20.32;13.43;;;;;;;0.86;79.28;99891.95;1768508;80;21142;-70
2021/04/03 03:12:17;;;;;;;20.68;13.80;;;;;;;0.81;79.21;99890.45;1768178;80;21251;-71
2021/04/03 03:14:47;;;;;;;20.75;13.85;;;;;;;0.76;79.17;99887.14;1769068;80;21175;-70
2021/04/03 03:17:16;;;;;;;21.37;14.47;;;;;;;0.71;79.16;99888.27;1763724;80;21238;-73
2021/04/03 03:19:46;;;;;;;24.18;15.48;;;;;;;0.65;79.21;99885.15;1753992;80;21154;-73
2021/04/03 03:22:14;;;;;;;22.40;13.50;;;;;;;0.61;79.23;99882.13;1763389;80;21674;-73
2021/04/03 03:24:42;;;;;;;19.87;13.88;;;;;;;0.57;79.28;99878.31;1736506;80;21381;-74
2021/04/03 03:27:12;;;;;;;22.00;14.25;;;;;;;0.53;79.32;99885.01;1746025;80;21059;-73
2021/04/03 03:29:42;;;;;;;19.17;13.40;;;;;;;0.48;79.38;99881.38;1753397;80;21571;-73
2021/04/03 03:32:10;;;;;;;22.50;14.55;;;;;;;0.45;79.46;99882.08;1725513;80;21179;-74
2021/04/03 03:34:40;;;;;;;19.42;13.03;;;;;;;0.43;79.53;99873.62;1767337;80;21103;-74
2021/04/03 03:37:10;;;;;;;23.83;13.78;;;;;;;0.43;79.60;99874.13;1770482;80;21870;-74
2021/04/03 03:39:40;;;;;;;20.65;14.00;;;;;;;0.43;79.68;99875.45;1775377;80;21119;-73
2021/04/03 03:42:10;;;;;;;21.20;13.62;;;;;;;0.42;79.80;99870.67;1767578;80;21289;-73
2021/04/03 03:44:38;;;;;;;20.68;13.25;;;;;;;0.45;79.91;99876.02;1770295;80;21172;-74
2021/04/03 03:47:08;;;;;;;21.35;13.72;;;;;;;0.45;80.03;99878.66;1726158;80;21103;-73
2021/04/03 03:49:39;;;;;;;21.00;13.18;;;;;;;0.46;80.20;99878.94;1736041;80;21360;-74
2021/04/03 03:52:07;;;;;;;20.95;13.93;;;;;;;0.50;80.34;99870.97;1757470;80;21657;-74
2021/04/03 03:54:38;;;;;;;22.22;12.50;;;;;;;0.56;80.45;99873.25;1765434;80;21111;-74
2021/04/03 03:57:06;;;;;;;21.80;13.00;;;;;;;0.57;80.53;99872.25;1764039;80;21258;-73
2021/04/03 03:59:34;;;;;;;19.32;11.95;;;;;;;0.54;80.66;99873.47;1759650;80;21092;-73
2021/04/03 04:02:03;;;;;;;20.40;12.93;;;;;;;0.53;80.79;99878.44;1757159;80;21339;-73
2021/04/03 04:04:33;;;;;;;21.45;12.93;;;;;;;0.60;80.92;99884.98;1757823;80;21157;-74
2021/04/03 04:07:04;;;;;;;22.07;13.05;;;;;;;0.62;80.96;99881.63;1761105;80;21651;-73
2021/04/03 04:09:32;;;;;;;18.65;12.03;;;;;;;0.65;81.00;99878.06;1767260;80;21559;-74
2021/04/03 04:12:07;;;;;;;20.17;12.15;;;;;;;0.75;81.05;99889.96;1765287;80;21744;-75
2021/04/03 04:14:37;;;;;;;18.65;11.55;;;;;;;0.84;81.11;99890.83;1759542;80;21203;-74
2021/04/03 04:17:07;;;;;;;20.52;12.53;;;;;;;0.89;81.10;99894.17;1767510;80;21171;-74
2021/04/03 04:19:37;;;;;;;18.80;11.88;;;;;;;0.94;81.11;99896.95;1752327;80;21186;-73
2021/04/03 04:22:06;;;;;;;19.48;11.93;;;;;;;0.93;81.04;99895.35;1758093;80;21182;-74
2021/04/03 04:24:34;;;;;;;19.17;11.78;;;;;;;0.90;80.91;99898.40;1755827;79;21746;-73
2021/04/03 04:27:05;;;;;;;19.10;11.68;;;;;;;0.90;80.89;99897.89;1729384;82;21658;-73
2021/04/03 04:29:33;;;;;;;18.00;11.08;;;;;;;0.94;80.94;99899.08;1763779;80;21195;-73
2021/04/03 04:32:04;;;;;;;18.67;11.63;;;;;;;1.04;80.85;99898.62;1766275;80;21195;-74
2021/04/03 04:34:34;;;;;;;17.85;11.15;;;;;;;1.12;80.71;99894.95;1762681;79;21182;-73
2021/04/03 04:37:04;;;;;;;18.75;11.73;;;;;;;1.25;80.71;99897.99;1770050;79;21158;-74
2021/04/03 04:39:36;;;;;;;19.20;11.45;;;;;;;1.33;80.35;99904.33;1766840;79;21339;-73
2021/04/03 04:42:06;;;;;;;19.00;11.38;;;;;;;1.43;80.20;99895.45;1761052;79;21198;-74
2021/04/03 04:44:36;;;;;;;20.55;12.35;;;;;;;1.52;80.04;99898.13;1762963;79;21170;-75
2021/04/03 04:47:05;;;;;;;19.48;12.50;;;;;;;1.60;79.94;99893.11;1764705;80;21631;-74
2021/04/03 04:49:34;;;;;;;17.52;10.55;;;;;;;1.74;79.87;99897.75;1760768;79;21261;-74
2021/04/03 04:52:03;;;;;;;20.77;11.65;;;;;;;1.90;79.79;99895.89;1758023;79;22300;-73
2021/04/03 04:54:32;;;;;;;17.00;11.25;;;;;;;2.03;79.56;99886.55;1763861;79;21315;-73
2021/04/03 04:57:02;;;;;;;17.85;11.95;;;;;;;2.17;79.30;99889.86;1764185;79;21175;-74
2021/04/03 04:59:32;;;;;;;17.95;11.65;;;;;;;2.28;79.06;99892.31;1764792;80;21194;-73
2021/04/03 05:02:18;;;;;;;17.83;11.53;;;;;;;2.45;78.72;99889.89;1818306;77;22472;-74
2021/04/03 05:04:46;;;;;;;18.48;12.00;;;;;;;2.48;78.38;99898.17;1792698;79;21155;-74
2021/04/03 05:07:14;;;;;;;18.95;12.25;;;;;;;2.57;78.01;99890.27;1803088;78;22172;-74
2021/04/03 05:09:42;;;;;;;16.15;10.80;;;;;;;2.68;77.74;99900.58;1786890;79;21115;-74
2021/04/03 05:12:10;;;;;;;19.00;12.30;;;;;;;2.74;77.23;99897.58;1794688;79;21183;-73
2021/04/03 05:14:39;;;;;;;16.87;11.57;;;;;;;2.74;76.81;99902.33;1794412;79;21634;-74
2021/04/03 05:17:07;;;;;;;16.37;10.98;;;;;;;2.80;76.56;99900.13;1797677;77;21196;-73
2021/04/03 05:19:35;;;;;;;17.95;11.08;;;;;;;2.86;76.30;99903.69;1798069;77;21377;-73
2021/04/03 05:22:04;;;;;;;20.43;12.20;;;;;;;2.93;76.00;99906.25;1796384;77;21175;-72
2021/04/03 05:24:32;;;;;;;19.23;12.07;;;;;;;2.97;75.72;99906.91;1793744;79;21154;-73
2021/04/03 05:27:01;;;;;;;16.32;10.45;;;;;;;3.03;75.58;99909.19;1797507;77;21150;-73
2021/04/03 05:29:28;;;;;;;17.87;11.20;;;;;;;3.11;75.20;99908.86;1794195;79;21123;-73
2021/04/03 05:31:57;;;;;;;17.05;11.33;;;;;;;3.14;74.68;99903.66;1804871;79;22364;-72
2021/04/03 05:34:24;;;;;;;15.25;10.68;;;;;;;3.20;74.81;99905.41;1794831;79;21166;-71
2021/04/03 05:36:55;;;;;;;18.45;11.97;;;;;;;3.31;74.54;99902.50;1787603;79;21195;-71
2021/04/03 05:39:22;;;;;;;18.12;11.50;;;;;;;3.41;74.43;99900.92;1798436;77;21135;-72
2021/04/03 05:41:50;;;;;;;16.32;11.45;;;;;;;3.52;74.06;99901.48;1795438;79;21183;-72
2021/04/03 05:44:22;;;;;;;16.42;11.43;;;;;;;3.65;73.77;99898.33;1796139;79;21803;-72
2021/04/03 05:46:52;;;;;;;17.85;12.13;;;;;;;3.76;73.32;99902.84;1797760;77;21210;-72
2021/04/03 05:49:19;;;;;;;19.07;11.65;;;;;;;3.90;73.07;99906.06;1796188;79;21111;-73
2021/04/03 05:51:47;;;;;;;16.97;10.78;;;;;;;4.01;72.59;99897.33;1789937;79;21190;-72
2021/04/03 05:54:16;;;;;;;17.02;10.98;;;;;;;4.12;72.03;99898.38;1793149;77;21178;-72
2021/04/03 05:56:44;;;;;;;18.77;11.25;;;;;;;4.22;71.71;99901.24;1802938;79;21405;-72
2021/04/03 05:59:13;;;;;;;15.03;11.08;;;;;;;4.29;71.58;99908.53;1790719;77;21178;-72
2021/04/03 06:01:41;;;;;;;15.90;10.55;;;;;;;4.38;71.26;99905.03;1799519;77;21167;-72
2021/04/03 06:04:09;;;;;;;16.15;11.38;;;;;;;4.48;70.95;99904.44;1793098;77;21155;-72
2021/04/03 06:06:39;;;;;;;15.15;9.95;;;;;;;4.60;70.72;99905.20;1802188;79;21168;-72
2021/04/03 06:09:17;;;;;;;16.10;10.78;;;;;;;4.72;70.42;99907.83;1772971;79;21412;-72
2021/04/03 06:11:52;;;;;;;14.80;10.18;;;;;;;4.83;70.23;99906.46;1792726;79;21182;-75
2021/04/03 06:14:19;;;;;;;17.25;10.78;;;;;;;4.93;69.82;99905.86;1801042;79;21221;-73
2021/04/03 06:16:52;;;;;;;15.00;10.35;;;;;;;5.03;69.40;99911.86;1803365;79;21654;-72
2021/04/03 06:19:36;;;;;;;;;;;;;;;;;;;;;
2021/04/03 06:22:14;;;;;;;18.27;10.77;;;;;;;5.17;68.30;99925.92;1924257;73;22653;-72
2021/04/03 06:24:43;;;;;;;17.98;11.88;;;;;;;5.20;68.41;99923.33;1877756;74;21082;-71
2021/04/03 06:27:17;;;;;;;15.58;11.00;;;;;;;5.34;68.40;99918.54;1875661;74;21423;-73
2021/04/03 06:29:50;;;;;;;15.95;10.60;;;;;;;5.49;68.34;99920.63;1857389;74;21599;-71
2021/04/03 06:32:31;;;;;;;12.55;8.10;;;;;;;5.64;67.67;99919.58;1881023;74;21121;-73
2021/04/03 06:34:59;;;;;;;18.55;12.28;;;;;;;5.72;67.13;99917.84;1880757;74;21228;-70
2021/04/03 06:37:30;;;;;;;19.70;11.25;;;;;;;5.78;66.77;99923.52;1876317;74;21118;-71
2021/04/03 06:40:07;;;;;;;16.52;11.00;;;;;;;5.85;66.43;99924.15;1868427;74;21351;-72
2021/04/03 06:42:51;;;;;;;15.50;10.48;;;;;;;5.97;66.56;99932.06;1875321;74;21140;-72
2021/04/03 06:45:30;;;;;;;16.62;11.08;;;;;;;6.12;65.98;99935.48;1872874;74;21138;-72
2021/04/03 06:48:03;;;;;;;18.82;11.83;;;;;;;6.21;65.65;99939.31;1885059;74;21113;-72
2021/04/03 06:50:41;;;;;;;18.15;11.43;;;;;;;6.28;65.04;99938.61;1880841;74;21152;-74
2021/04/03 06:53:16;;;;;;;19.98;12.53;;;;;;;6.36;64.71;99940.06;1881199;74;21795;-72
2021/04/03 06:55:48;;;;;;;23.95;12.85;;;;;;;6.43;64.56;99946.52;1878763;74;21129;-72
2021/04/03 06:58:16;;;;;;;16.25;11.20;;;;;;;6.55;64.62;99944.58;1875085;74;21137;-73
2021/04/03 07:00:46;;;;;;;18.50;12.70;;;;;;;6.64;64.01;99948.38;1873149;74;21644;-71
2021/04/03 07:03:24;;;;;;;19.90;11.95;;;;;;;6.74;63.95;99939.22;1872612;74;21059;-72
2021/04/03 07:05:52;;;;;;;19.80;12.37;;;;;;;6.85;62.42;99940.70;1883639;74;22276;-73
2021/04/03 07:08:21;;;;;;;17.77;12.45;;;;;;;6.89;62.81;99941.81;1872078;74;21185;-73
2021/04/03 07:10:51;;;;;;;17.57;12.33;;;;;;;7.00;62.37;99944.31;1872421;74;21200;-73
2021/04/03 07:13:19;;;;;;;18.67;12.07;;;;;;;7.14;62.04;99950.08;1870558;75;21078;-74
2021/04/03 07:15:48;;;;;;;18.15;11.00;;;;;;;7.28;61.61;99944.64;1882975;74;21181;-73
2021/04/03 07:18:15;;;;;;;14.95;10.32;;;;;;;7.39;60.98;99950.84;1875806;74;21310;-73
2021/04/03 07:20:43;;;;;;;13.60;9.95;;;;;;;7.51;60.21;99951.51;1830135;75;21161;-73
2021/04/03 07:23:12;;;;;;;16.07;9.15;;;;;;;7.64;59.42;99956.95;1871856;74;21205;-73
2021/04/03 07:25:43;;;;;;;14.00;8.75;;;;;;;7.79;58.60;99962.91;1873050;75;21804;-72
2021/04/03 07:28:10;;;;;;;13.48;7.50;;;;;;;7.94;57.65;99958.27;1876380;74;21108;-72
2021/04/03 07:30:43;;;;;;;15.35;9.18;;;;;;;8.04;55.91;99954.35;1873809;74;21837;-72
2021/04/03 07:33:19;;;;;;;14.50;10.28;;;;;;;8.13;55.45;99956.81;1871715;74;21192;-72
2021/04/03 07:35:54;;;;;;;12.15;8.70;;;;;;;8.20;55.35;99957.39;1875371;74;21172;-71
2021/04/03 07:38:37;;;;;;;13.72;8.18;;;;;;;8.29;54.96;99960.89;1877430;74;21162;-72
2021/04/03 07:41:16;;;;;;;13.83;8.10;;;;;;;8.39;54.45;99964.47;1861970;74;21129;-72
2021/04/03 07:43:46;;;;;;;10.70;6.62;;;;;;;8.43;53.32;99965.56;1880984;74;21430;-73
2021/04/03 07:46:29;;;;;;;11.43;6.92;;;;;;;8.50;52.85;99971.19;1879726;74;21232;-72
2021/04/03 07:48:58;;;;;;;11.95;7.17;;;;;;;8.54;52.81;99972.27;1878312;75;21150;-71
2021/04/03 07:51:38;;;;;;;10.35;7.15;;;;;;;8.62;52.38;99979.75;1877411;74;21204;-71
2021/04/03 07:54:06;;;;;;;11.68;7.30;;;;;;;8.71;52.24;99976.08;1875324;75;21201;-71
2021/04/03 07:56:52;;;;;;;13.25;7.90;;;;;;;8.76;52.69;99970.27;1842134;75;22379;-71
2021/04/03 07:59:47;;;;;;;11.05;7.62;;;;;;;8.84;52.55;99976.95;1846564;75;21564;-73
2021/04/03 08:02:24;;;;;;;12.25;7.45;;;;;;;8.88;51.87;99980.18;1865180;74;21177;-72
2021/04/03 08:04:51;;;;;;;11.95;6.85;;;;;;;8.96;51.59;99978.87;1884107;74;21124;-71
2021/04/03 08:07:21;;;;;;;10.82;7.17;;;;;;;9.08;51.40;99974.64;1873740;75;21180;-71
2021/04/03 08:09:49;;;;;;;10.80;6.97;;;;;;;9.24;51.34;99980.83;1879994;75;21360;-73
2021/04/03 08:12:22;;;;;;;11.22;6.53;;;;;;;9.38;50.59;99986.75;1876146;75;21209;-71
2021/04/03 08:14:51;;;;;;;10.38;7.00;;;;;;;9.46;49.08;99987.30;1786879;77;21699;-72
2021/04/03 08:17:20;;;;;;;13.68;7.47;;;;;;;9.46;49.05;99988.63;1813352;77;21589;-73
2021/04/03 08:19:50;;;;;;;10.98;8.00;;;;;;;9.51;48.45;99989.95;1842656;75;21274;-73
2021/04/03 08:22:19;;;;;;;10.28;5.75;;;;;;;9.60;48.74;99990.50;1815845;77;21394;-73
2021/04/03 08:24:57;;;;;;;9.88;5.72;;;;;;;9.78;46.90;99996.42;1813654;77;21279;-75
2021/04/03 08:27:34;;;;;;;8.03;5.08;;;;;;;9.83;46.03;99980.41;1818845;77;21096;-71
2021/04/03 08:30:21;;;;;;;8.20;4.80;;;;;;;9.95;46.00;99988.16;1815521;77;21540;-74
2021/04/03 08:32:34;;;;;;;7.37;4.62;;;;;;;10.11;45.06;99975.09;1809209;76;21643;-74
2021/04/03 08:35:03;;;;;;;11.33;6.50;;;;;;;10.24;44.67;99961.73;1803175;78;21435;-74
2021/04/03 08:37:32;;;;;;;11.43;7.00;;;;;;;10.29;44.81;99972.42;1818715;77;21735;-74
2021/04/03 08:40:00;;;;;;;9.00;5.95;;;;;;;10.29;45.34;99979.09;1816426;77;21392;-74
2021/04/03 08:42:28;;;;;;;8.07;4.80;;;;;;;10.25;44.77;99974.80;1813763;78;21735;-72
2021/04/03 08:44:57;;;;;;;7.33;5.07;;;;;;;10.21;44.24;99979.63;1819148;78;21367;-74
2021/04/03 08:47:24;;;;;;;7.77;4.80;;;;;;;10.20;43.81;99972.15;1819694;77;21475;-73
2021/04/03 08:49:52;;;;;;;6.90;4.70;;;;;;;10.22;43.44;99977.20;1812207;77;21452;-73
2021/04/03 08:52:22;;;;;;;8.27;4.87;;;;;;;10.26;43.17;99979.63;1807622;78;21874;-74
2021/04/03 08:54:51;;;;;;;7.97;4.03;;;;;;;10.29;42.79;99964.41;1825917;77;21411;-74
2021/04/03 08:57:26;;;;;;;9.20;4.10;;;;;;;10.38;42.42;99960.67;1810494;77;21354;-73
2021/04/03 08:59:59;;;;;;;9.27;3.70;;;;;;;10.48;41.88;99968.66;1815253;77;21493;-72
2021/04/03 09:02:27;;;;;;;4.53;2.73;;;;;;;10.57;40.91;99965.70;1812277;77;21455;-74
2021/04/03 09:04:55;;;;;;;5.30;2.80;;;;;;;10.63;39.18;99967.30;1818611;77;21425;-72
2021/04/03 09:07:36;;;;;;;4.80;2.80;;;;;;;10.73;39.36;99962.46;1814959;77;21506;-73
2021/04/03 09:10:16;;;;;;;5.23;2.77;;;;;;;10.82;39.17;99959.47;1813019;77;21380;-73
2021/04/03 09:12:45;;;;;;;4.07;2.40;;;;;;;10.90;38.07;99956.25;1814028;77;21380;-74
2021/04/03 09:15:27;;;;;;;6.07;2.90;;;;;;;10.98;37.90;99961.55;1810773;77;21432;-74
2021/04/03 09:17:58;;;;;;;7.00;2.93;;;;;;;10.99;37.62;99962.63;1809833;77;21700;-73
2021/04/03 09:20:29;;;;;;;3.90;2.00;;;;;;;10.99;37.76;99967.14;1817660;77;21448;-73
2021/04/03 09:23:06;;;;;;;5.07;2.17;;;;;;;11.07;36.97;99969.27;1819113;77;21748;-72
2021/04/03 09:25:35;;;;;;;5.50;2.70;;;;;;;11.02;36.64;99963.42;1809315;77;21482;-73
2021/04/03 09:28:15;;;;;;;7.03;2.70;;;;;;;10.92;36.25;99960.77;1814882;76;21505;-72
2021/04/03 09:30:46;;;;;;;5.17;2.90;;;;;;;10.93;36.87;99956.24;1811590;77;21330;-73
2021/04/03 09:33:25;;;;;;;3.87;2.60;;;;;;;10.93;36.21;99967.72;1777386;78;21433;-72
2021/04/03 09:36:09;;;;;;;4.27;2.10;;;;;;;10.93;36.58;99970.39;1816770;77;21258;-73
2021/04/03 09:38:38;;;;;;;5.93;2.60;;;;;;;11.05;35.72;99971.40;1813999;77;21383;-72
2021/04/03 09:41:27;;;;;;;5.23;2.50;;;;;;;11.12;36.35;99968.43;1837195;75;21566;-72
2021/04/03 09:43:55;;;;;;;4.57;2.90;;;;;;;11.17;35.72;99954.52;1838954;75;21486;-73
2021/04/03 09:46:23;;;;;;;5.73;2.80;;;;;;;11.26;35.80;99958.75;1836028;76;21816;-73
2021/04/03 09:48:51;;;;;;;4.40;2.63;;;;;;;11.41;35.98;99954.63;1811814;77;21399;-72
2021/04/03 09:51:21;;;;;;;5.57;2.70;;;;;;;11.55;35.63;99959.36;1836428;75;21364;-72
2021/04/03 09:53:52;;;;;;;5.60;3.07;;;;;;;11.61;34.90;99970.29;1839474;76;21417;-73
2021/04/03 09:56:20;;;;;;;5.03;2.80;;;;;;;11.54;34.40;99962.58;1834245;75;21467;-72
2021/04/03 09:58:48;;;;;;;6.30;2.70;;;;;;;11.53;34.12;99960.20;1833830;75;21209;-72
2021/04/03 10:01:16;;;;;;;5.17;3.00;;;;;;;11.46;34.23;99955.95;1806149;75;21461;-73
2021/04/03 10:03:45;;;;;;;5.47;3.13;;;;;;;11.39;35.21;99956.80;1831015;75;21453;-73
2021/04/03 10:06:14;;;;;;;6.17;3.20;;;;;;;11.46;35.34;99952.48;1824532;76;21525;-73
2021/04/03 10:08:42;;;;;;;5.50;3.17;;;;;;;11.43;34.71;99952.50;1802256;76;21856;-74
2021/04/03 10:11:10;;;;;;;9.87;3.23;;;;;;;11.41;34.55;99960.53;1836684;76;21802;-72
2021/04/03 10:13:39;;;;;;;5.47;2.23;;;;;;;11.33;33.70;99961.92;1841987;76;21865;-72
2021/04/03 10:16:07;;;;;;;5.47;2.50;;;;;;;11.17;33.48;99970.55;1836022;75;22417;-72
2021/04/03 10:18:36;;;;;;;6.67;2.60;;;;;;;11.07;32.81;99984.50;1834300;76;21786;-73
2021/04/03 10:21:07;;;;;;;5.27;2.43;;;;;;;10.94;32.77;99970.65;1832509;75;21459;-74
2021/04/03 10:23:36;;;;;;;4.30;2.37;;;;;;;10.92;33.05;99972.78;1836661;75;21330;-72
2021/04/03 10:26:05;;;;;;;7.47;2.77;;;;;;;10.95;33.32;99977.58;1828914;77;21175;-75
2021/04/03 10:28:33;;;;;;;8.50;2.60;;;;;;;10.95;33.59;99976.25;1830970;75;22038;-74
2021/04/03 10:31:03;;;;;;;6.63;2.40;;;;;;;11.01;34.61;99980.50;1841463;76;21401;-72
2021/04/03 10:33:32;;;;;;;5.03;2.20;;;;;;;11.11;33.66;99979.66;1840326;75;21431;-76
2021/04/03 10:35:59;;;;;;;4.50;2.20;;;;;;;11.22;33.78;99979.89;1835093;76;21384;-73
2021/04/03 10:38:28;;;;;;;3.97;1.97;;;;;;;11.38;33.68;99977.13;1828925;77;21383;-73
2021/04/03 10:40:59;;;;;;;4.93;2.03;;;;;;;11.53;32.07;99960.98;1839054;77;22373;-73
2021/04/03 10:43:28;;;;;;;4.37;2.23;;;;;;;11.48;32.38;99953.81;1836921;77;21317;-73
2021/04/03 10:45:56;;;;;;;4.97;2.20;;;;;;;11.55;33.08;99956.69;1818591;77;21408;-73
2021/04/03 10:48:24;;;;;;;3.63;2.00;;;;;;;11.63;32.60;99962.25;1827699;75;21701;-73
2021/04/03 10:50:53;;;;;;;4.00;1.90;;;;;;;11.67;32.34;99955.81;1834859;75;21474;-73
2021/04/03 10:53:21;;;;;;;3.30;1.77;;;;;;;11.61;32.89;99962.27;1832710;75;22165;-72
2021/04/03 10:55:49;;;;;;;4.23;2.43;;;;;;;11.62;32.18;99964.68;1833071;76;21907;-74
2021/04/03 10:58:17;;;;;;;4.30;2.00;;;;;;;11.58;32.50;99960.15;1838278;77;21359;-71
2021/04/03 11:00:47;;;;;;;5.10;2.10;;;;;;;11.61;32.88;99967.08;1826365;77;21646;-69
2021/04/03 11:03:15;;;;;;;4.83;2.70;;;;;;;11.70;32.63;99956.59;1830329;75;21454;-70
2021/04/03 11:05:43;;;;;;;3.40;1.70;;;;;;;11.73;32.62;99948.02;1830396;75;21361;-70
2021/04/03 11:08:12;;;;;;;5.20;1.80;;;;;;;11.71;30.69;99944.30;1832882;77;21404;-70
2021/04/03 11:10:40;;;;;;;5.47;1.70;;;;;;;11.70;31.13;99947.23;1838798;76;21393;-70
2021/04/03 11:13:09;;;;;;;2.63;1.40;;;;;;;11.72;30.18;99951.77;1832388;77;21569;-71
2021/04/03 11:15:37;;;;;;;2.80;1.50;;;;;;;11.74;30.89;99954.95;1836715;76;22996;-71
2021/04/03 11:18:05;;;;;;;4.93;1.47;;;;;;;11.80;30.05;99943.68;1838432;77;21353;-72
2021/04/03 11:20:33;;;;;;;2.37;1.50;;;;;;;11.86;29.59;99949.28;1839690;75;21915;-74
2021/04/03 11:23:03;;;;;;;4.07;1.60;;;;;;;11.85;28.99;99945.02;1841651;77;21375;-69
2021/04/03 11:25:33;;;;;;;3.87;1.70;;;;;;;11.80;28.59;99939.66;1838073;75;21829;-71
2021/04/03 11:28:02;;;;;;;3.00;1.83;;;;;;;11.79;29.32;99938.88;1816503;76;21379;-73
2021/04/03 11:30:30;;;;;;;3.60;1.77;;;;;;;11.87;29.14;99941.50;1825257;75;21517;-69
2021/04/03 11:32:58;;;;;;;4.00;1.80;;;;;;;11.88;29.18;99950.61;1837287;75;21419;-68
2021/04/03 11:35:27;;;;;;;3.47;1.70;;;;;;;11.82;28.63;99940.98;1836331;76;21335;-70
2021/04/03 11:37:55;;;;;;;4.03;1.60;;;;;;;11.80;28.66;99935.66;1829558;77;21386;-70
2021/04/03 11:40:23;;;;;;;3.20;1.60;;;;;;;11.80;28.59;99938.33;1837325;76;21357;-72
2021/04/03 11:45:29;;;;;;;3.60;1.60;;;;;;;12.03;28.57;99934.16;1842727;77;22251;-71
2021/04/03 11:47:57;;;;;;;3.70;1.60;;;;;;;12.02;28.18;99928.00;1805443;78;21757;-71
2021/04/03 11:50:26;;;;;;;4.53;2.03;;;;;;;12.06;28.16;99928.23;1834482;77;21498;-72